Riverside, Rhode Island
Current Conditions -  °F | °C
As of 8:51 AM on Sunday 25 Jan 2015 (Local Time) from KPVD Reporting Station
Overcast Overcast  
Wind Chill: 26°   Ceiling: 5000
Heat Index: 34°   Visibility: 10mi
Dew Point: 26°   Wind: 10mph
Humidity: 73%   Direction: 240°WSW
Pressure: 29.6"   Gusts: NA
Location:  41.77°N, 71.37°W
Report Text: KPVD 251351Z 24009KT 10SM OVC050 01/M03 A2960 RMK AO2 SLP024 T00111033
Loading
Personal Weather Stations






























Interactive Weather Map New forecast layout! Learn more

10-Day Weather Forecast

Advertisements
Track Severe Weather on mobile